Weather observations for the past three days for
St. Inigoes, Webster Field, Naval Electronic Systems Engineering Activity
Imperial (Metric)
Date Time (edt) Wind (mph) Vis. (mi.) Weather Sky Cond. Temperature (ºF) Relative Humidity Wind Chill (°F) Heat Index (°F) Pressure Precipitation (in)
Air Dwpt 6 hour altimeter (in) sea level (mb) 1 hr 3 hr 6 hr
Max. Min.
03 20:53 Calm 10.00 Fair CLR 80.1 78.1 94% 86 29.94 1013.7
03 19:53 S 3 10.00 Fair CLR 82 75.9 90 82 82% 89 29.92 1013.0
03 18:53 Calm 10.00 Fair CLR 87.1 75.9 70% 98 29.91 1012.7
03 17:53 W 6 10.00 Fair CLR 89.1 75 63% 99 29.91 1012.8
03 13:53 W 6 10.00 Fair CLR 87.1 78.1 87.1 75 75% 100 29.97 1014.9
03 12:53 SW 6 10.00 Fair CLR 86 77 75% 97 29.99 1015.4
03 11:53 Vrbl 6 10.00 Fair CLR 82.9 75.9 79% 91 30.01 1016.2
03 10:53 SE 8 10.00 Mostly Cloudy FEW012 BKN018 82.9 77 82% 92 30 1015.8
03 09:53 E 6 10.00 Mostly Cloudy BKN013 BKN023 81 75.9 85% 87 30.01 1016.2
03 07:53 E 3 10.00 Partly Cloudy SCT013 75 73.9 75 71.1 96% 73 30.02 1016.6
03 06:53 Calm 10.00 Overcast OVC013 73.9 72 94% 30.01 1016.1
03 05:53 Calm 10.00 A Few Clouds FEW090 71.1 71.1 100% 29.98 1015.2
03 04:53 Calm 10.00 A Few Clouds FEW090 71.6 71.6 100% 29.99 1001.5
03 03:53 Calm 10.00 Mostly Cloudy BKN095 72 71.1 97% 29.99 1015.3
03 02:53 Calm 10.00 Mostly Cloudy FEW021 BKN100 71.1 71.1 100% 29.98 1015.3
03 01:53 NE 3 10.00 A Few Clouds FEW100 71.1 70 73 71.1 96% 30 1015.8
02 23:53 E 3 10.00 Mostly Cloudy BKN100 73 71.1 94% 30.01 1016.2
02 22:53 E 3 10.00 Fair CLR 72 70 94% 30 1015.7
02 20:53 Calm 10.00 Fair CLR 72 71.1 97% 30.02 1016.4
02 19:53 E 3 10.00 Fair CLR 73 71.1 88 73 94% 30 1015.8 0.04
02 18:53 Calm 10.00 Fair CLR 73.9 72 94% 30 1015.9
02 17:53 Calm 10.00 Fair CLR 75.9 71.1 85% 76 30.01 1016.0
02 15:53 E 7 10.00 Fair CLR 75.9 70 82% 77 30.04 1017.3 0.04
02 13:53 NE 8 10.00 Fair CLR 86 73.9 86 79 67% 94 30.05 1017.6
02 12:53 E 7 10.00 A Few Clouds FEW024 84 73.9 72% 91 30.05 1017.4
02 11:53 E 8 10.00 A Few Clouds FEW019 82.9 73.9 74% 89 30.04 1017.2
02 10:53 E 9 10.00 Partly Cloudy SCT016 82 73 74% 87 30.05 1017.5
02 09:53 NE 8 10.00 Overcast OVC014 80.1 73 79% 84 30.04 1017.1
02 08:53 NE 6 10.00 Fair CLR 80.1 75 85% 85 30.01 1016.3
02 06:53 Calm 8.00 Fair CLR 75 73.9 96% 73 30 1015.8
02 05:53 Calm 9.00 Fair CLR 73.9 73 97% 29.98 1015.3
02 04:53 E 3 10.00 Fair CLR 77 73.9 90% 78 29.98 1015.3
02 03:53 E 7 10.00 Fair CLR 78.1 73.9 87% 81 29.97 1014.9
02 02:53 Calm 10.00 Fair CLR 77 73 88% 78 29.97 1014.9
02 01:53 Calm 0.00 Fair CLR 75.9 73.9 84 75.9 94% 75 29.97 1014.8
02 00:53 Calm 10.00 Fair CLR 77 75 94% 78 29.97 1014.8
01 23:53 Calm 10.00 Partly Cloudy SCT070 80.1 75.9 87% 85 29.96 1014.5
01 22:53 S 3 10.00 Fair CLR 81 75.9 85% 87 29.95 1014.0
01 21:53 S 6 10.00 Fair CLR 82.9 77 82% 92 29.95 1014.0
01 20:53 S 6 10.00 Fair CLR 82.9 77 82% 92 29.93 1013.4
01 17:53 S 5 10.00 Fair CLR 88 71.1 57% 94 29.93 1013.6
01 16:53 SW 7 10.00 Fair CLR 89.1 71.1 55% 95 29.94 1013.8
01 15:53 SW 7 10.00 Fair CLR 91 73 56% 100 29.95 1014.2
01 14:53 SW 7 10.00 Fair CLR 91.9 72 52% 100 29.97 1014.7
01 12:53 W 6 10.00 Fair CLR 89.1 72 57% 96 29.98 1015.2
01 11:53 SW 7 10.00 Fair CLR 87.1 73.9 65% 95 29.99 1015.6
01 10:53 W 6 10.00 Fair CLR 84.2 75.2 74% 92 30.01 1016.1
01 09:53 W 5 0.00 Fair CLR 82 75 79% 89 30.01 1016.2
01 08:53 W 5 0.00 Fair CLR 81 73.9 79% 86 30.02 1016.5
01 07:53 W 3 0.00 Fair CLR 78.1 73 78.1 73 85% 81 30.02 1016.4
01 06:53 W 6 10.00 Fair CLR 75.9 72 88% 76 30 1015.8
01 04:53 W 5 10.00 Fair CLR 75.9 72 88% 76 30 1015.7
01 03:53 W 5 10.00 Fair CLR 75.9 72 88% 76 30 1015.9
01 02:53 SW 7 10.00 A Few Clouds FEW110 75.9 73 91% 76 30.02 1016.3
01 01:53 Calm 9.00 Overcast OVC120 75 73.9 79 75 96% 73 30.02 1016.6
31 23:53 Calm 10.00 A Few Clouds FEW110 77 73.9 90% 78 30.04 1017.0
31 22:53 Calm 8.00 Fair CLR 75 73.9 96% 73 30.03 1016.9
31 21:53 SE 3 10.00 Fair CLR 75.9 73.9 94% 75 30.04 1017.2
Date Time (edt) Wind (mph) Vis. (mi.) Weather Sky Cond. Air Dwpt Max. Min. Relative Humidity Wind Chill (°F) Heat Index (°F) altimeter (in) sea level (mb) 1 hr 3 hr 6 hr
6 hour
Temperature (ºF) Pressure Precipitation (in)